createdAt,value
2022-12-17T00:01:10.240Z,0.77
2022-12-17T00:03:56.991Z,0.77
2022-12-17T00:06:44.080Z,0.69
2022-12-17T00:09:29.839Z,0.65
2022-12-17T00:12:15.675Z,0.62
2022-12-17T00:15:01.435Z,0.68
2022-12-17T00:17:47.169Z,0.67
2022-12-17T00:20:32.934Z,0.71
2022-12-17T00:23:24.440Z,0.74
2022-12-17T00:26:15.238Z,0.79
2022-12-17T00:29:01.653Z,0.89
2022-12-17T00:31:49.910Z,0.89
2022-12-17T00:34:35.928Z,0.80
2022-12-17T00:37:21.836Z,0.82
2022-12-17T00:40:07.587Z,0.77
2022-12-17T00:42:53.344Z,0.61
2022-12-17T00:45:42.032Z,0.68
2022-12-17T00:48:28.026Z,0.65
2022-12-17T00:51:14.377Z,0.73
2022-12-17T00:54:00.104Z,0.75
2022-12-17T00:56:46.669Z,0.63
2022-12-17T00:59:32.455Z,0.57
2022-12-17T01:02:18.399Z,0.56
2022-12-17T01:05:04.219Z,0.54
2022-12-17T01:07:50.172Z,0.37
2022-12-17T01:10:35.966Z,0.32
2022-12-17T01:13:22.299Z,0.40
2022-12-17T01:16:07.914Z,0.41
2022-12-17T01:18:53.872Z,0.34
2022-12-17T01:21:42.155Z,0.35
2022-12-17T01:24:27.958Z,0.41
2022-12-17T01:27:13.799Z,0.29
2022-12-17T01:29:59.991Z,0.34
2022-12-17T01:32:45.578Z,0.22
2022-12-17T01:35:32.061Z,0.15
2022-12-17T01:38:17.724Z,0.15
2022-12-17T01:41:03.507Z,0.24
2022-12-17T01:43:55.855Z,0.28
2022-12-17T01:46:44.403Z,0.20
2022-12-17T01:49:31.548Z,0.17
2022-12-17T01:52:19.498Z,0.18
2022-12-17T01:55:06.479Z,0.15
2022-12-17T01:57:53.852Z,0.13
2022-12-17T02:00:40.214Z,0.16
2022-12-17T02:03:34.470Z,0.15
2022-12-17T02:07:06.809Z,0.06
2022-12-17T02:10:12.885Z,0.14
2022-12-17T02:13:11.207Z,-0.02
2022-12-17T02:16:08.943Z,-0.04
2022-12-17T02:19:14.353Z,-0.07
2022-12-17T02:22:05.338Z,0.01
2022-12-17T02:25:11.245Z,0.00
2022-12-17T02:27:57.142Z,-0.05
2022-12-17T02:30:42.959Z,-0.11
2022-12-17T02:33:31.389Z,-0.07
2022-12-17T02:36:24.093Z,-0.02
2022-12-17T02:39:09.913Z,0.01
2022-12-17T02:42:15.051Z,-0.03
2022-12-17T02:45:02.478Z,-0.13
2022-12-17T02:47:48.699Z,-0.18
2022-12-17T02:50:34.887Z,-0.19
2022-12-17T02:53:22.809Z,-0.17
2022-12-17T02:56:08.553Z,-0.28
2022-12-17T02:58:54.535Z,-0.19
2022-12-17T03:01:40.471Z,-0.16
2022-12-17T03:04:26.160Z,-0.26
2022-12-17T03:07:12.319Z,-0.30
2022-12-17T03:09:57.749Z,-0.22
2022-12-17T03:12:43.915Z,-0.11
2022-12-17T03:15:29.777Z,-0.08
2022-12-17T03:18:15.768Z,-0.05
2022-12-17T03:21:01.660Z,-0.07
2022-12-17T03:23:47.384Z,0.04
2022-12-17T03:26:33.025Z,0.12
2022-12-17T03:29:18.896Z,0.06
2022-12-17T03:32:07.807Z,0.07
2022-12-17T03:34:53.451Z,0.04
2022-12-17T03:37:39.395Z,0.10
2022-12-17T03:40:26.113Z,0.12
2022-12-17T03:43:12.051Z,0.09
2022-12-17T03:45:58.223Z,0.11
2022-12-17T03:48:44.269Z,0.05
2022-12-17T03:51:30.112Z,0.10
2022-12-17T03:54:15.758Z,0.09
2022-12-17T03:57:01.971Z,-0.04
2022-12-17T03:59:47.736Z,-0.16
2022-12-17T04:02:34.032Z,-0.12
2022-12-17T04:05:20.505Z,-0.06
2022-12-17T04:08:06.973Z,-0.03
2022-12-17T04:11:00.523Z,-0.13
2022-12-17T04:13:46.538Z,-0.26
2022-12-17T04:16:32.629Z,-0.22
2022-12-17T04:19:18.967Z,-0.21
2022-12-17T04:22:04.740Z,-0.28
2022-12-17T04:24:50.528Z,-0.25
2022-12-17T04:27:36.374Z,-0.24
2022-12-17T04:30:23.255Z,-0.14
2022-12-17T04:33:08.887Z,-0.25
2022-12-17T04:36:02.754Z,-0.30
2022-12-17T04:38:48.569Z,-0.32
2022-12-17T04:41:34.782Z,-0.34
2022-12-17T04:44:20.891Z,-0.33
2022-12-17T04:47:07.018Z,-0.32
2022-12-17T04:49:52.734Z,-0.54
2022-12-17T04:52:38.541Z,-0.50
2022-12-17T04:55:24.713Z,-0.50
2022-12-17T04:58:10.580Z,-0.51
2022-12-17T05:00:56.441Z,-0.44
2022-12-17T05:03:42.182Z,-0.41
2022-12-17T05:06:29.068Z,-0.42
2022-12-17T05:09:15.132Z,-0.35
2022-12-17T05:12:00.987Z,-0.23
2022-12-17T05:14:47.268Z,-0.31
2022-12-17T05:17:32.779Z,-0.22
2022-12-17T05:20:18.615Z,-0.19
2022-12-17T05:23:04.457Z,-0.14
2022-12-17T05:25:50.217Z,-0.13
2022-12-17T05:28:36.038Z,-0.08
2022-12-17T05:31:21.853Z,-0.07
2022-12-17T05:34:07.507Z,-0.06
2022-12-17T05:36:53.367Z,-0.13
2022-12-17T05:39:39.065Z,-0.23
2022-12-17T05:42:24.917Z,-0.21
2022-12-17T05:45:10.732Z,-0.42
2022-12-17T05:47:56.696Z,-0.42
2022-12-17T05:50:56.283Z,-0.44
2022-12-17T05:53:42.288Z,-0.41
2022-12-17T05:56:28.281Z,-0.36
2022-12-17T05:59:14.377Z,-0.48
2022-12-17T06:02:00.234Z,-0.46
2022-12-17T06:04:46.511Z,-0.64
2022-12-17T06:07:32.301Z,-0.67
2022-12-17T06:10:18.181Z,-0.69
2022-12-17T06:13:03.997Z,-0.86
2022-12-17T06:15:50.106Z,-0.93
2022-12-17T06:18:36.409Z,-0.91
2022-12-17T06:21:22.805Z,-0.92
2022-12-17T06:24:08.405Z,-0.86
2022-12-17T06:26:54.295Z,-0.96
2022-12-17T06:29:40.117Z,-1.00
2022-12-17T06:32:25.967Z,-1.02
2022-12-17T06:35:11.662Z,-1.18
2022-12-17T06:37:57.513Z,-1.16
2022-12-17T06:40:43.216Z,-1.17
2022-12-17T06:43:29.027Z,-1.07
2022-12-17T06:46:14.942Z,-1.18
2022-12-17T06:49:00.894Z,-1.18
2022-12-17T06:51:46.649Z,-1.13
2022-12-17T06:54:32.433Z,-1.16
2022-12-17T06:57:18.022Z,-1.27
2022-12-17T07:00:03.955Z,-1.17
2022-12-17T07:02:49.831Z,-1.01
2022-12-17T07:05:35.919Z,-1.19
2022-12-17T07:08:22.035Z,-1.20
2022-12-17T07:11:07.706Z,-1.16
2022-12-17T07:13:53.411Z,-1.12
2022-12-17T07:16:39.874Z,-1.06
2022-12-17T07:19:27.440Z,-1.03
2022-12-17T07:22:14.672Z,-1.19
2022-12-17T07:25:00.485Z,-1.12
2022-12-17T07:27:46.698Z,-1.05
2022-12-17T07:30:32.326Z,-1.12
2022-12-17T07:33:29.372Z,-1.12
2022-12-17T07:36:15.253Z,-1.19
2022-12-17T07:39:01.005Z,-1.17
2022-12-17T07:41:46.592Z,-0.98
2022-12-17T07:44:32.351Z,-1.02
2022-12-17T07:47:17.921Z,-0.87
2022-12-17T07:50:03.815Z,-0.70
2022-12-17T07:52:49.542Z,-0.56
2022-12-17T07:55:35.198Z,-0.51
2022-12-17T07:58:28.876Z,-0.23
2022-12-17T08:01:18.789Z,-0.17
2022-12-17T08:04:05.470Z,0.04
2022-12-17T08:06:55.117Z,-0.05
2022-12-17T08:09:44.257Z,0.07
2022-12-17T08:12:29.979Z,0.21
2022-12-17T08:15:15.835Z,0.24
2022-12-17T08:18:01.602Z,0.24
2022-12-17T08:20:47.899Z,0.49
2022-12-17T08:23:34.366Z,0.61
2022-12-17T08:26:21.748Z,0.87
2022-12-17T08:29:07.919Z,1.00
2022-12-17T08:31:53.763Z,1.21
2022-12-17T08:34:39.450Z,1.09
2022-12-17T08:37:32.761Z,0.96
2022-12-17T08:40:18.774Z,0.99
2022-12-17T08:43:04.512Z,1.03
2022-12-17T08:45:50.375Z,1.12
2022-12-17T08:48:35.888Z,1.16
2022-12-17T08:51:23.730Z,1.25
2022-12-17T08:54:09.323Z,1.35
2022-12-17T08:56:55.154Z,1.61
2022-12-17T08:59:42.851Z,1.86
2022-12-17T09:02:29.233Z,2.17
2022-12-17T09:05:14.952Z,2.59
2022-12-17T09:08:00.587Z,2.85
2022-12-17T09:10:46.427Z,3.28
2022-12-17T09:13:32.509Z,3.58
2022-12-17T09:16:18.019Z,4.09
2022-12-17T09:19:04.647Z,4.55
2022-12-17T09:21:50.899Z,4.31
2022-12-17T09:24:36.608Z,4.17
2022-12-17T09:27:22.434Z,3.89
2022-12-17T09:30:08.334Z,3.64
2022-12-17T09:32:55.692Z,3.37
2022-12-17T09:35:43.528Z,3.30
2022-12-17T09:38:35.922Z,3.32
2022-12-17T09:41:40.302Z,3.18
2022-12-17T09:45:07.241Z,2.72
2022-12-17T09:48:33.300Z,2.51
2022-12-17T09:51:19.179Z,2.48
2022-12-17T09:54:09.145Z,2.60
2022-12-17T09:56:58.305Z,2.70
2022-12-17T09:59:51.519Z,2.52
2022-12-17T10:02:43.647Z,2.53
2022-12-17T10:05:48.688Z,2.26
2022-12-17T10:08:39.987Z,2.30
2022-12-17T10:11:46.887Z,2.29
2022-12-17T10:14:42.836Z,1.98
2022-12-17T10:17:37.358Z,1.85
2022-12-17T10:20:39.950Z,1.78
2022-12-17T10:23:26.083Z,1.62
2022-12-17T10:26:15.630Z,1.59
2022-12-17T10:29:02.012Z,1.38
2022-12-17T10:31:49.387Z,1.14
2022-12-17T10:34:39.631Z,1.16
2022-12-17T10:37:37.501Z,1.05
2022-12-17T10:40:48.195Z,0.84
2022-12-17T10:43:46.476Z,0.98
2022-12-17T10:46:49.084Z,0.85
2022-12-17T10:49:42.202Z,0.58
2022-12-17T10:52:50.515Z,0.70
2022-12-17T10:55:47.401Z,0.98
2022-12-17T10:58:48.327Z,1.23
2022-12-17T11:01:44.779Z,1.16
2022-12-17T11:04:50.633Z,1.03
2022-12-17T11:07:59.852Z,1.04
2022-12-17T11:11:01.665Z,1.17
2022-12-17T11:14:11.144Z,1.34
2022-12-17T11:17:13.811Z,1.34
2022-12-17T11:20:10.162Z,1.60
2022-12-17T11:23:11.500Z,1.62
2022-12-17T11:26:28.510Z,1.62
2022-12-17T11:29:14.829Z,1.60
2022-12-17T11:32:18.295Z,1.69
2022-12-17T11:35:19.701Z,1.75
2022-12-17T11:38:41.369Z,1.61
2022-12-17T11:41:53.232Z,1.45
2022-12-17T11:44:54.392Z,1.30
2022-12-17T11:48:35.575Z,1.36
2022-12-17T11:52:40.149Z,1.31
2022-12-17T11:56:11.814Z,1.19
2022-12-17T11:59:26.507Z,0.89
2022-12-17T12:02:35.860Z,0.67
2022-12-17T12:05:58.224Z,0.65
2022-12-17T12:08:49.083Z,0.64
2022-12-17T12:11:49.547Z,0.51
2022-12-17T12:15:02.486Z,0.44
2022-12-17T12:18:25.585Z,0.40
2022-12-17T12:22:07.424Z,0.32
2022-12-17T12:25:30.080Z,0.14
2022-12-17T12:28:54.135Z,0.25
2022-12-17T12:32:01.090Z,0.22
2022-12-17T12:34:54.388Z,0.21
2022-12-17T12:37:42.172Z,0.28
2022-12-17T12:40:57.264Z,0.16
2022-12-17T12:43:52.605Z,0.13
2022-12-17T12:47:07.235Z,0.16
2022-12-17T12:50:39.696Z,0.06
2022-12-17T12:53:30.958Z,0.04
2022-12-17T12:56:16.833Z,-0.02
2022-12-17T12:59:03.152Z,-0.01
2022-12-17T13:01:57.304Z,0.02
2022-12-17T13:04:54.408Z,0.00
2022-12-17T13:07:30.357Z,0.04
2022-12-17T13:09:59.466Z,0.06
2022-12-17T13:12:45.806Z,0.02
2022-12-17T13:15:33.389Z,-0.04
2022-12-17T13:18:35.560Z,0.08
2022-12-17T13:21:17.372Z,0.18
2022-12-17T13:23:44.681Z,0.23
2022-12-17T13:26:23.226Z,0.17
2022-12-17T13:28:56.546Z,0.22
2022-12-17T13:31:44.990Z,0.28
2022-12-17T13:34:55.079Z,0.17
2022-12-17T13:37:25.172Z,0.18
2022-12-17T13:40:22.218Z,0.31
2022-12-17T13:42:50.426Z,0.30
2022-12-17T13:45:23.831Z,0.23
2022-12-17T13:47:59.339Z,0.22
2022-12-17T13:50:35.624Z,0.15
2022-12-17T13:53:13.226Z,0.17
2022-12-17T13:55:41.224Z,0.05
2022-12-17T13:58:30.427Z,0.05
2022-12-17T14:01:12.545Z,-0.01
2022-12-17T14:04:08.641Z,-0.11
2022-12-17T14:06:38.776Z,-0.04
2022-12-17T14:09:06.941Z,-0.04
2022-12-17T14:11:56.035Z,-0.12
2022-12-17T14:14:35.562Z,-0.15
2022-12-17T14:17:03.415Z,-0.26
2022-12-17T14:19:32.705Z,-0.39
2022-12-17T14:22:01.211Z,-0.44
2022-12-17T14:24:30.031Z,-0.44
2022-12-17T14:27:00.783Z,-0.44
2022-12-17T14:29:32.676Z,-0.50
2022-12-17T14:32:21.420Z,-0.62
2022-12-17T14:34:48.995Z,-0.49
2022-12-17T14:37:21.939Z,-0.50
2022-12-17T14:39:50.463Z,-0.60
2022-12-17T14:42:26.125Z,-0.63
2022-12-17T14:45:05.520Z,-0.63
2022-12-17T14:47:37.922Z,-0.67
2022-12-17T14:50:26.214Z,-0.75
2022-12-17T14:52:57.551Z,-0.78
2022-12-17T14:55:34.254Z,-0.83
2022-12-17T14:58:16.323Z,-0.84
2022-12-17T15:01:11.233Z,-0.77
2022-12-17T15:03:42.999Z,-0.78
2022-12-17T15:06:15.457Z,-0.80
2022-12-17T15:08:47.066Z,-0.62
2022-12-17T15:11:20.124Z,-0.70
2022-12-17T15:13:52.834Z,-0.59
2022-12-17T15:16:22.027Z,-0.64
2022-12-17T15:18:49.858Z,-0.80
2022-12-17T15:21:19.274Z,-0.82
2022-12-17T15:23:48.467Z,-0.80
2022-12-17T15:26:17.457Z,-0.79
2022-12-17T15:28:44.870Z,-0.84
2022-12-17T15:31:14.943Z,-0.79
2022-12-17T15:33:42.898Z,-0.88
2022-12-17T15:36:12.156Z,-0.90
2022-12-17T15:38:40.253Z,-0.91
2022-12-17T15:41:27.030Z,-0.92
2022-12-17T15:43:54.254Z,-1.09
2022-12-17T15:46:21.856Z,-1.20
2022-12-17T15:48:50.634Z,-1.04
2022-12-17T15:51:21.235Z,-1.15
2022-12-17T15:53:50.022Z,-1.16
2022-12-17T15:56:28.958Z,-1.17
2022-12-17T15:58:59.671Z,-1.24
2022-12-17T16:01:27.589Z,-1.17
2022-12-17T16:03:55.172Z,-1.24
2022-12-17T16:06:22.826Z,-1.35
2022-12-17T16:08:50.093Z,-1.33
2022-12-17T16:11:17.648Z,-1.29
2022-12-17T16:13:44.904Z,-1.35
2022-12-17T16:16:12.484Z,-1.40
2022-12-17T16:18:40.149Z,-1.33
2022-12-17T16:21:09.619Z,-1.29
2022-12-17T16:23:37.808Z,-1.43
2022-12-17T16:26:09.255Z,-1.45
2022-12-17T16:28:37.918Z,-1.46
2022-12-17T16:31:13.852Z,-1.31
2022-12-17T16:33:44.147Z,-1.31
2022-12-17T16:36:16.285Z,-1.25
2022-12-17T16:38:52.769Z,-1.27
2022-12-17T16:41:22.136Z,-1.36
2022-12-17T16:43:49.570Z,-1.25
2022-12-17T16:46:31.372Z,-1.26
2022-12-17T16:49:05.183Z,-1.25
2022-12-17T16:51:33.092Z,-1.14
2022-12-17T16:54:05.270Z,-1.25
2022-12-17T16:56:38.127Z,-1.20
2022-12-17T16:59:08.484Z,-1.17
2022-12-17T17:01:38.318Z,-1.18
2022-12-17T17:04:09.314Z,-1.30
2022-12-17T17:06:52.242Z,-1.30
2022-12-17T17:09:21.061Z,-1.32
2022-12-17T17:11:51.738Z,-1.33
2022-12-17T17:14:20.041Z,-1.30
2022-12-17T17:16:47.629Z,-1.27
2022-12-17T17:19:15.256Z,-1.32
2022-12-17T17:21:53.976Z,-1.38
2022-12-17T17:24:25.593Z,-1.34
2022-12-17T17:26:55.205Z,-1.44
2022-12-17T17:29:22.591Z,-1.38
2022-12-17T17:34:37.877Z,-1.22
2022-12-17T17:37:05.554Z,-1.20
2022-12-17T17:39:34.383Z,-1.27
2022-12-17T17:42:02.681Z,-1.30
2022-12-17T17:44:29.937Z,-1.31
2022-12-17T17:46:57.816Z,-1.32
2022-12-17T17:49:25.276Z,-1.29
2022-12-17T17:52:09.000Z,-1.19
2022-12-17T17:54:37.513Z,-1.23
2022-12-17T17:57:04.994Z,-1.17
2022-12-17T17:59:34.165Z,-1.15
2022-12-17T18:02:03.573Z,-1.08
2022-12-17T18:04:32.152Z,-1.10
2022-12-17T18:07:24.167Z,-1.27
2022-12-17T18:09:47.136Z,-1.29
2022-12-17T18:12:33.106Z,-1.29
2022-12-17T18:15:19.306Z,-1.34
2022-12-17T18:17:51.488Z,-1.42
2022-12-17T18:20:18.946Z,-1.44
2022-12-17T18:22:47.172Z,-1.57
2022-12-17T18:25:17.003Z,-1.60
2022-12-17T18:27:45.052Z,-1.66
2022-12-17T18:30:13.733Z,-1.74
2022-12-17T18:32:41.534Z,-1.92
2022-12-17T18:35:10.326Z,-1.95
2022-12-17T18:37:38.663Z,-1.97
2022-12-17T18:40:08.163Z,-1.92
2022-12-17T18:42:54.583Z,-1.84
2022-12-17T18:45:22.584Z,-1.96
2022-12-17T18:47:51.336Z,-1.87
2022-12-17T18:50:18.672Z,-1.92
2022-12-17T18:52:46.208Z,-1.97
2022-12-17T18:55:13.689Z,-1.88
2022-12-17T18:57:41.178Z,-1.98
2022-12-17T19:00:09.550Z,-2.13
2022-12-17T19:02:37.179Z,-2.02
2022-12-17T19:05:04.873Z,-2.01
2022-12-17T19:07:32.308Z,-2.12
2022-12-17T19:09:59.497Z,-1.98
2022-12-17T19:12:27.079Z,-1.94
2022-12-17T19:14:54.311Z,-2.14
2022-12-17T19:17:21.774Z,-2.04
2022-12-17T19:19:49.106Z,-2.03
2022-12-17T19:22:16.848Z,-2.16
2022-12-17T19:24:44.129Z,-2.05
2022-12-17T19:27:11.671Z,-2.07
2022-12-17T19:29:38.869Z,-2.18
2022-12-17T19:32:06.438Z,-2.14
2022-12-17T19:34:35.194Z,-2.18
2022-12-17T19:37:02.800Z,-2.19
2022-12-17T19:39:30.015Z,-2.11
2022-12-17T19:41:57.488Z,-2.14
2022-12-17T19:44:25.220Z,-2.15
2022-12-17T19:46:52.768Z,-2.24
2022-12-17T19:49:19.967Z,-2.18
2022-12-17T19:51:47.490Z,-2.13
2022-12-17T19:54:15.624Z,-2.15
2022-12-17T19:56:45.593Z,-2.02
2022-12-17T19:59:14.024Z,-1.95
2022-12-17T20:01:46.521Z,-1.87
2022-12-17T20:04:16.525Z,-2.05
2022-12-17T20:06:45.372Z,-1.96
2022-12-17T20:09:14.104Z,-2.07
2022-12-17T20:11:41.949Z,-2.14
2022-12-17T20:14:22.544Z,-2.32
2022-12-17T20:16:55.395Z,-2.17
2022-12-17T20:19:26.540Z,-1.96
2022-12-17T20:21:55.072Z,-1.94
2022-12-17T20:24:28.821Z,-1.91
2022-12-17T20:26:59.555Z,-2.06
2022-12-17T20:29:27.462Z,-2.03
2022-12-17T20:31:56.157Z,-2.08
2022-12-17T20:34:24.639Z,-2.12
2022-12-17T20:36:53.775Z,-2.14
2022-12-17T20:39:26.586Z,-2.12
2022-12-17T20:41:55.944Z,-2.13
2022-12-17T20:44:23.478Z,-2.07
2022-12-17T20:46:50.935Z,-1.98
2022-12-17T20:49:18.129Z,-2.05
2022-12-17T20:51:45.676Z,-2.04
2022-12-17T20:54:12.962Z,-2.07
2022-12-17T20:56:40.814Z,-2.11
2022-12-17T20:59:13.175Z,-2.02
2022-12-17T21:01:41.265Z,-1.95
2022-12-17T21:04:08.742Z,-2.03
2022-12-17T21:06:40.677Z,-2.09
2022-12-17T21:09:08.891Z,-2.01
2022-12-17T21:11:38.841Z,-2.05
2022-12-17T21:14:10.034Z,-1.75
2022-12-17T21:16:40.014Z,-1.91
2022-12-17T21:19:09.523Z,-1.88
2022-12-17T21:21:38.690Z,-1.89
2022-12-17T21:24:08.322Z,-1.91
2022-12-17T21:26:40.024Z,-1.83
2022-12-17T21:29:08.875Z,-1.85
2022-12-17T21:31:41.580Z,-1.71
2022-12-17T21:34:14.579Z,-1.88
2022-12-17T21:36:42.538Z,-1.83
2022-12-17T21:39:13.412Z,-1.75
2022-12-17T21:42:03.920Z,-1.72
2022-12-17T21:44:31.224Z,-1.78
2022-12-17T21:46:58.849Z,-1.85
2022-12-17T21:49:26.203Z,-1.84
2022-12-17T21:51:53.889Z,-1.86
2022-12-17T21:54:21.187Z,-1.88
2022-12-17T21:56:48.992Z,-1.85
2022-12-17T21:59:16.459Z,-1.88
2022-12-17T22:01:45.430Z,-1.78
2022-12-17T22:04:13.011Z,-1.81
2022-12-17T22:06:41.668Z,-1.85
2022-12-17T22:09:25.901Z,-1.69
2022-12-17T22:12:20.876Z,-1.85
2022-12-17T22:14:48.234Z,-1.91
2022-12-17T22:17:16.334Z,-1.87
2022-12-17T22:19:43.610Z,-2.03
2022-12-17T22:22:11.178Z,-1.95
2022-12-17T22:24:38.596Z,-1.96
2022-12-17T22:27:09.490Z,-2.05
2022-12-17T22:29:56.247Z,-1.85
2022-12-17T22:32:42.407Z,-1.88
2022-12-17T22:36:43.667Z,-1.74
2022-12-17T22:41:45.146Z,-1.82
2022-12-17T22:44:42.466Z,-1.75
2022-12-17T22:44:45.959Z,-1.83
2022-12-17T22:46:20.775Z,-1.76
2022-12-17T22:48:48.465Z,-1.69
2022-12-17T22:51:25.101Z,-1.65
2022-12-17T22:54:04.513Z,-1.67
2022-12-17T22:56:51.117Z,-1.64
2022-12-17T22:59:22.009Z,-1.73
2022-12-17T23:01:49.290Z,-1.73
2022-12-17T23:04:17.315Z,-1.73
2022-12-17T23:06:46.077Z,-1.76
2022-12-17T23:09:19.224Z,-1.89
2022-12-17T23:11:49.083Z,-1.78
2022-12-17T23:14:18.414Z,-1.75
2022-12-17T23:16:45.825Z,-1.78
2022-12-17T23:19:14.347Z,-1.81
2022-12-17T23:21:41.852Z,-1.69
2022-12-17T23:24:09.633Z,-1.59
2022-12-17T23:26:37.741Z,-1.58
2022-12-17T23:29:10.900Z,-1.60
2022-12-17T23:31:42.820Z,-1.45
2022-12-17T23:34:10.419Z,-1.56
2022-12-17T23:36:37.848Z,-1.52
2022-12-17T23:39:06.320Z,-1.74
2022-12-17T23:41:33.879Z,-1.80
2022-12-17T23:44:01.800Z,-1.80
2022-12-17T23:46:30.684Z,-1.75
2022-12-17T23:49:08.574Z,-1.78
2022-12-17T23:51:35.780Z,-1.72
2022-12-17T23:54:03.660Z,-1.62
2022-12-17T23:56:31.047Z,-1.59
2022-12-17T23:59:01.503Z,-1.64
